チェンナイ の空港の天気 - METARとTAF

チェンナイ国際空港 ( VOMM / MAA ) - インド チェンナイ
飛行場実況気象(Metar)
観測時間01/29 13:30 IST (01/29 08:00 UTC)
風向・風速北北東 4m/s
視程6000m
天気現象
全天の4割程度の雲 雲底高度 610m
全天の8割程度の雲 雲底高度 3050m
気温28℃
湿度70%
気圧1013hPa
METARVOMM 290800Z 02008KT 6000 SCT020 BKN100 28/22 Q1013 TEMPO 5000 DZ
過去の天気等 Google飛行場航空写真 Wunderground天気予報

過去48時間のMETAR

飛行場予報(TAF)
発表時間: 1/29 10:30 IST (1/29 05:00 UTC)
予報対象時間: 29日11時 IST ~ 30日17時 IST
風向・風速北東 8m/s
視程6000m
全天の4割程度の雲 雲底高度 610m
全天の4割程度の雲 雲底高度 3050m
29日20時 IST ~ 29日21時 IST に徐々に
風向・風速北東 3m/s
視程5000m
天気現象もや
30日2時 IST ~ 30日3時 IST に徐々に
視程3000m
天気現象もや
30日5時 IST ~ 30日8時 IST に一時的に
視程1500m
天気現象もや
30日8時 IST ~ 30日9時 IST に徐々に
風向・風速北東 5m/s
視程5000m
天気現象煙霧
30日11時 IST ~ 30日12時 IST に徐々に
視程6000m
TAF VOMM 290500Z 2906/3012 05015KT 6000 SCT020 SCT100
BECMG 2915/2916 05005KT 5000 BR
BECMG 2921/2922 3000 BR
TEMPO 3000/3003 1500 BR
BECMG 3003/3004 05010KT 5000 HZ
BECMG 3006/3007 6000